Time;durP1;ratioP1;P1;durP2;ratioP2;P2;SDS_P1;SDS_P2;PMS_P1;PMS_P2;Temp;Humidity;BMP_temperature;BMP_pressure;BME280_temperature;BME280_humidity;BME280_pressure;Samples;Min_cycle;Max_cycle;Signal;HPM_P1;HPM_P2
2022/11/07 00:02:09;;;;;;;0.55;0.55;;;10.90;99.90;;;;;;5057718;28;20041;-67
2022/11/07 00:04:36;;;;;;;0.22;0.22;;;10.90;99.90;;;;;;5050843;28;20068;-68
2022/11/07 00:07:03;;;;;;;0.10;0.10;;;10.90;99.90;;;;;;5036430;28;20443;-67
2022/11/07 00:09:28;;;;;;;0.93;0.52;;;10.90;99.90;;;;;;5036250;28;20045;-68
2022/11/07 00:11:54;;;;;;;0.10;0.10;;;10.90;99.90;;;;;;5053273;28;20094;-67
2022/11/07 00:14:20;;;;;;;3.08;1.65;;;10.90;99.90;;;;;;5042907;28;20478;-68
2022/11/07 00:16:46;;;;;;;0.17;0.17;;;10.90;99.90;;;;;;5050545;28;20404;-67
2022/11/07 00:19:14;;;;;;;0.30;0.30;;;10.90;99.90;;;;;;5057852;28;20033;-67
2022/11/07 00:21:40;;;;;;;0.10;0.10;;;10.90;99.90;;;;;;5065990;28;20036;-67
2022/11/07 00:24:07;;;;;;;0.22;0.22;;;10.90;99.90;;;;;;5043208;28;20051;-68
2022/11/07 00:26:33;;;;;;;0.30;0.30;;;10.90;99.90;;;;;;5062244;28;20552;-67
2022/11/07 00:28:58;;;;;;;0.40;0.40;;;10.90;99.90;;;;;;5067711;28;20044;-67
2022/11/07 00:31:24;;;;;;;0.47;0.47;;;10.90;99.90;;;;;;5040881;28;20420;-67
2022/11/07 00:33:51;;;;;;;0.20;0.20;;;11.00;99.90;;;;;;5043331;28;20110;-67
2022/11/07 00:36:22;;;;;;;0.20;0.20;;;11.00;99.90;;;;;;5067054;28;23933;-67
2022/11/07 00:38:47;;;;;;;1.08;1.08;;;11.00;99.90;;;;;;5057127;28;20041;-68
2022/11/07 00:41:13;;;;;;;0.22;0.22;;;11.00;99.90;;;;;;5059825;28;20045;-67
2022/11/07 00:43:39;;;;;;;0.10;0.10;;;10.90;99.90;;;;;;5061269;28;20037;-67
2022/11/07 00:46:07;;;;;;;0.28;0.28;;;10.90;99.90;;;;;;5054068;28;20033;-67
2022/11/07 00:48:33;;;;;;;0.13;0.13;;;10.90;99.90;;;;;;5037296;28;20049;-67
2022/11/07 00:51:17;;;;;;;0.13;0.13;;;10.90;99.90;;;;;;5045299;28;20083;-67
2022/11/07 00:53:43;;;;;;;0.20;0.20;;;10.90;99.90;;;;;;5050265;28;20048;-68
2022/11/07 00:56:12;;;;;;;1.23;1.13;;;10.80;99.90;;;;;;5039572;28;20736;-68
2022/11/07 00:58:38;;;;;;;0.10;0.10;;;10.80;99.90;;;;;;5042751;28;20041;-68
2022/11/07 01:01:12;;;;;;;0.43;0.43;;;10.80;99.90;;;;;;5064846;28;20267;-67
2022/11/07 01:06:22;;;;;;;0.30;0.30;;;10.90;99.90;;;;;;5049997;28;20060;-68
2022/11/07 01:08:48;;;;;;;0.10;0.10;;;10.80;99.90;;;;;;5069530;28;20045;-68
2022/11/07 01:11:14;;;;;;;0.10;0.10;;;10.90;99.90;;;;;;5062024;28;20122;-67
2022/11/07 01:13:40;;;;;;;0.70;0.70;;;10.80;99.90;;;;;;5060862;28;20068;-68
2022/11/07 01:16:09;;;;;;;0.22;0.22;;;10.80;99.90;;;;;;5049504;28;20125;-68
2022/11/07 01:18:34;;;;;;;0.35;0.35;;;10.80;99.90;;;;;;5036913;28;20060;-67
2022/11/07 01:21:04;;;;;;;0.98;0.82;;;10.90;99.90;;;;;;5069215;28;20045;-67
2022/11/07 01:23:29;;;;;;;0.10;0.10;;;10.90;99.90;;;;;;5069161;28;20399;-68
2022/11/07 01:25:55;;;;;;;0.40;0.40;;;10.90;99.90;;;;;;5041992;28;20051;-68
2022/11/07 01:28:20;;;;;;;0.08;0.08;;;10.90;99.90;;;;;;5061823;28;20476;-68
2022/11/07 01:30:46;;;;;;;0.28;0.28;;;10.90;99.90;;;;;;5051097;28;20189;-68
2022/11/07 01:33:12;;;;;;;0.10;0.10;;;10.90;99.90;;;;;;5051213;28;20135;-68
2022/11/07 01:35:38;;;;;;;0.10;0.10;;;10.90;99.90;;;;;;5053820;28;20072;-68
2022/11/07 01:38:04;;;;;;;1.55;1.45;;;11.00;99.90;;;;;;5066522;28;20467;-68
2022/11/07 01:40:30;;;;;;;0.10;0.10;;;10.90;99.90;;;;;;5073468;28;20411;-68
2022/11/07 01:42:55;;;;;;;0.20;0.20;;;11.00;99.90;;;;;;5072058;28;20707;-68
2022/11/07 01:45:25;;;;;;;0.20;0.20;;;10.90;99.90;;;;;;5043737;28;20514;-68
2022/11/07 01:47:54;;;;;;;0.10;0.10;;;10.90;99.90;;;;;;5065198;28;20187;-68
2022/11/07 01:50:20;;;;;;;0.40;0.40;;;10.90;99.90;;;;;;5072198;28;20052;-68
2022/11/07 01:52:47;;;;;;;0.20;0.20;;;10.90;99.90;;;;;;5045684;28;20131;-67
2022/11/07 01:55:27;;;;;;;2.20;1.38;;;10.90;99.90;;;;;;5044892;28;20098;-68
2022/11/07 01:58:07;;;;;;;0.10;0.10;;;10.90;99.90;;;;;;5066430;28;20044;-68
2022/11/07 02:00:34;;;;;;;0.10;0.10;;;10.90;99.90;;;;;;5060177;28;20496;-68
2022/11/07 02:03:13;;;;;;;0.20;0.20;;;10.90;99.90;;;;;;5068532;28;20557;-68
2022/11/07 02:06:19;;;;;;;0.32;0.32;;;10.90;99.90;;;;;;5067176;28;20076;-68
2022/11/07 02:08:47;;;;;;;0.13;0.13;;;10.90;99.90;;;;;;4974591;28;20144;-68
2022/11/07 02:11:13;;;;;;;2.13;0.90;;;10.90;99.90;;;;;;5048235;28;20052;-68
2022/11/07 02:13:39;;;;;;;1.10;1.10;;;10.90;99.90;;;;;;5063493;28;20041;-68
2022/11/07 02:16:05;;;;;;;0.95;0.95;;;11.00;99.90;;;;;;5062286;28;20649;-68
2022/11/07 02:18:33;;;;;;;0.10;0.10;;;11.00;99.90;;;;;;5059053;28;20077;-68
2022/11/07 02:21:08;;;;;;;4.63;1.88;;;11.00;99.90;;;;;;5072672;28;20055;-68
2022/11/07 02:23:39;;;;;;;0.52;0.50;;;11.00;99.90;;;;;;5060883;28;20044;-68
2022/11/07 02:26:05;;;;;;;0.30;0.30;;;10.90;99.90;;;;;;5064344;28;20488;-68
2022/11/07 02:28:33;;;;;;;0.10;0.10;;;11.00;99.90;;;;;;5071621;28;20048;-68
2022/11/07 02:30:58;;;;;;;0.10;0.10;;;11.00;99.90;;;;;;5055338;28;20049;-68
2022/11/07 02:33:24;;;;;;;2.17;1.30;;;11.00;99.90;;;;;;5052244;28;20408;-68
2022/11/07 02:35:51;;;;;;;0.10;0.10;;;11.00;99.90;;;;;;5072461;28;20087;-68
2022/11/07 02:38:17;;;;;;;0.20;0.20;;;11.00;99.90;;;;;;5056119;28;20113;-68
2022/11/07 02:40:46;;;;;;;0.22;0.17;;;11.00;99.90;;;;;;5041948;28;20048;-68
2022/11/07 02:43:15;;;;;;;0.10;0.10;;;11.00;99.90;;;;;;5059240;28;20516;-68
2022/11/07 02:45:43;;;;;;;15.20;1.05;;;11.00;99.90;;;;;;5069124;28;20048;-68
2022/11/07 02:48:09;;;;;;;8.77;2.15;;;11.00;99.90;;;;;;5057374;28;20048;-69
2022/11/07 02:50:35;;;;;;;0.00;0.00;;;11.00;99.90;;;;;;5054193;28;20074;-68
2022/11/07 02:53:00;;;;;;;0.10;0.10;;;11.00;99.90;;;;;;5045678;28;20041;-68
2022/11/07 02:55:26;;;;;;;0.20;0.20;;;11.00;99.90;;;;;;5053555;28;20604;-69
2022/11/07 02:57:52;;;;;;;0.10;0.10;;;11.10;99.90;;;;;;5066146;28;20040;-68
2022/11/07 03:00:17;;;;;;;0.45;0.43;;;11.00;99.90;;;;;;5053885;28;20048;-69
2022/11/07 03:02:45;;;;;;;0.00;0.00;;;11.00;99.90;;;;;;5063534;28;20036;-68
2022/11/07 03:05:13;;;;;;;0.00;0.00;;;11.00;99.90;;;;;;5040018;28;20072;-68
2022/11/07 03:07:40;;;;;;;0.40;0.40;;;11.00;99.90;;;;;;5059477;28;20040;-68
2022/11/07 03:10:06;;;;;;;0.20;0.20;;;11.00;99.90;;;;;;5064922;28;20041;-69
2022/11/07 03:12:32;;;;;;;0.68;0.68;;;11.00;99.90;;;;;;5060459;28;20119;-68
2022/11/07 03:14:57;;;;;;;0.10;0.10;;;11.00;99.90;;;;;;5066743;28;20056;-68
2022/11/07 03:17:23;;;;;;;0.30;0.30;;;11.00;99.90;;;;;;5058020;28;20483;-68
2022/11/07 03:19:48;;;;;;;0.10;0.10;;;11.00;99.90;;;;;;5055885;28;20403;-68
2022/11/07 03:22:14;;;;;;;0.10;0.10;;;11.00;99.90;;;;;;5042872;28;20539;-68
2022/11/07 03:24:39;;;;;;;1.65;0.73;;;11.00;99.90;;;;;;5057173;28;20384;-68
2022/11/07 03:27:05;;;;;;;0.75;0.63;;;11.00;99.90;;;;;;5061608;28;20048;-68
2022/11/07 03:29:31;;;;;;;1.48;1.38;;;10.90;99.90;;;;;;5069358;28;20163;-68
2022/11/07 03:31:56;;;;;;;0.30;0.30;;;10.90;99.90;;;;;;5062063;28;20082;-68
2022/11/07 03:34:22;;;;;;;1.13;0.65;;;10.90;99.90;;;;;;5033948;28;20067;-68
2022/11/07 03:36:47;;;;;;;0.10;0.10;;;11.00;99.90;;;;;;5039712;28;20095;-68
2022/11/07 03:39:13;;;;;;;0.10;0.10;;;11.00;99.90;;;;;;5062102;28;20099;-68
2022/11/07 03:41:38;;;;;;;0.85;0.52;;;11.00;99.90;;;;;;5052186;28;20396;-69
2022/11/07 03:44:04;;;;;;;0.90;0.90;;;11.00;99.90;;;;;;5062437;28;20047;-68
2022/11/07 03:46:30;;;;;;;0.10;0.10;;;10.90;99.90;;;;;;5070713;28;20040;-68
2022/11/07 03:48:56;;;;;;;0.10;0.10;;;10.90;99.90;;;;;;5064788;28;20076;-68
2022/11/07 03:51:21;;;;;;;0.63;0.35;;;10.90;99.90;;;;;;5044356;28;20044;-68
2022/11/07 03:53:47;;;;;;;0.00;0.00;;;11.00;99.90;;;;;;5051228;28;20400;-68
2022/11/07 03:56:12;;;;;;;1.17;0.90;;;11.00;99.90;;;;;;5070404;28;20040;-68
2022/11/07 03:58:38;;;;;;;0.10;0.10;;;11.00;99.90;;;;;;5061583;28;20037;-68
2022/11/07 04:01:04;;;;;;;0.10;0.10;;;10.90;99.90;;;;;;5058871;28;20045;-68
2022/11/07 04:03:31;;;;;;;0.03;0.03;;;10.90;99.90;;;;;;5052112;28;20052;-68
2022/11/07 04:05:57;;;;;;;0.10;0.10;;;10.90;99.90;;;;;;5070830;28;20408;-68
2022/11/07 04:08:23;;;;;;;1.17;1.00;;;11.00;99.90;;;;;;5052797;28;20378;-68
2022/11/07 04:10:49;;;;;;;0.17;0.17;;;11.00;99.90;;;;;;5065213;28;20051;-67
2022/11/07 04:18:54;;;;;;;3.08;1.35;;;11.00;99.90;;;;;;5014281;28;20516;-68
2022/11/07 04:21:20;;;;;;;3.40;1.00;;;11.10;99.90;;;;;;5064639;28;20163;-68
2022/11/07 04:23:46;;;;;;;0.10;0.10;;;11.10;99.90;;;;;;5059495;28;20513;-68
2022/11/07 04:28:55;;;;;;;0.20;0.20;;;11.10;99.90;;;;;;5064306;28;20052;-68
2022/11/07 04:31:21;;;;;;;0.20;0.20;;;11.00;99.90;;;;;;5067643;28;20041;-68
2022/11/07 04:33:47;;;;;;;0.10;0.10;;;11.10;99.90;;;;;;5049369;28;20040;-69
2022/11/07 04:36:13;;;;;;;0.10;0.10;;;11.10;99.90;;;;;;5054679;28;20389;-69
2022/11/07 04:38:38;;;;;;;0.10;0.10;;;11.10;99.90;;;;;;5040332;28;20519;-69
2022/11/07 04:41:04;;;;;;;0.15;0.15;;;11.10;99.90;;;;;;5054949;28;20082;-69
2022/11/07 04:43:29;;;;;;;7.47;1.75;;;11.00;99.90;;;;;;5044776;28;20072;-69
2022/11/07 04:45:55;;;;;;;0.10;0.10;;;11.00;99.90;;;;;;5056417;28;20503;-69
2022/11/07 04:48:21;;;;;;;0.65;0.57;;;11.10;99.90;;;;;;5061139;28;20052;-69
2022/11/07 04:50:47;;;;;;;0.20;0.20;;;11.10;99.90;;;;;;5049122;28;20447;-68
2022/11/07 04:53:15;;;;;;;0.10;0.10;;;11.00;99.90;;;;;;5051453;28;20044;-68
2022/11/07 04:55:42;;;;;;;0.10;0.10;;;11.00;99.90;;;;;;5067820;28;20044;-69
2022/11/07 04:58:08;;;;;;;2.85;1.95;;;11.00;99.90;;;;;;5037829;28;20037;-68
2022/11/07 05:00:33;;;;;;;0.28;0.28;;;11.00;99.90;;;;;;5067298;28;20502;-68
2022/11/07 05:02:59;;;;;;;0.28;0.28;;;10.90;99.90;;;;;;5052935;28;20048;-68
2022/11/07 05:05:25;;;;;;;0.10;0.10;;;10.90;99.90;;;;;;5052165;28;20079;-68
2022/11/07 05:07:50;;;;;;;0.15;0.15;;;10.90;99.90;;;;;;5054959;28;20037;-68
2022/11/07 05:10:25;;;;;;;0.20;0.20;;;10.90;99.90;;;;;;5046648;28;20048;-68
2022/11/07 05:12:52;;;;;;;0.30;0.30;;;10.90;99.90;;;;;;5041951;28;20051;-68
2022/11/07 05:15:18;;;;;;;0.00;0.00;;;10.90;99.90;;;;;;5036375;28;20131;-69
2022/11/07 05:17:44;;;;;;;0.10;0.10;;;10.90;99.90;;;;;;5054226;28;20047;-68
2022/11/07 05:20:26;;;;;;;0.10;0.10;;;10.90;99.90;;;;;;5057765;28;20392;-68
2022/11/07 05:25:36;;;;;;;0.10;0.10;;;10.90;99.90;;;;;;5073798;28;20506;-68
2022/11/07 05:28:01;;;;;;;0.30;0.30;;;11.00;99.90;;;;;;5043966;28;20072;-67
2022/11/07 05:30:27;;;;;;;0.20;0.20;;;10.90;99.90;;;;;;5045801;28;20063;-68
2022/11/07 05:32:52;;;;;;;1.75;1.17;;;11.00;99.90;;;;;;5053881;28;20045;-68
2022/11/07 05:35:18;;;;;;;0.10;0.10;;;11.00;99.90;;;;;;5051137;28;20052;-68
2022/11/07 05:37:43;;;;;;;9.30;2.38;;;11.00;99.90;;;;;;5038632;28;20045;-67
2022/11/07 05:40:10;;;;;;;0.55;0.55;;;10.90;99.90;;;;;;5042959;28;20049;-68
2022/11/07 05:42:35;;;;;;;0.20;0.20;;;10.90;99.90;;;;;;5035975;28;20042;-68
2022/11/07 05:45:01;;;;;;;0.75;0.75;;;11.00;99.90;;;;;;5045484;28;20462;-68
2022/11/07 05:47:26;;;;;;;0.10;0.10;;;10.90;99.90;;;;;;5036450;28;20045;-68
2022/11/07 05:49:52;;;;;;;0.45;0.45;;;10.90;99.90;;;;;;5043920;28;20116;-68
2022/11/07 05:52:17;;;;;;;0.10;0.10;;;10.90;99.90;;;;;;5049230;28;20087;-68
2022/11/07 05:54:43;;;;;;;0.10;0.10;;;10.90;99.90;;;;;;5045627;28;20033;-68
2022/11/07 05:57:08;;;;;;;0.98;0.98;;;10.90;99.90;;;;;;5041360;28;20048;-68
2022/11/07 05:59:34;;;;;;;0.10;0.10;;;10.90;99.90;;;;;;5052828;28;20049;-67
2022/11/07 06:01:59;;;;;;;0.40;0.40;;;10.90;99.90;;;;;;5046569;28;20440;-67
2022/11/07 06:04:25;;;;;;;0.10;0.10;;;10.90;99.90;;;;;;5045847;28;20431;-68
2022/11/07 06:06:50;;;;;;;0.10;0.10;;;10.90;99.90;;;;;;5047709;28;20431;-68
2022/11/07 06:09:16;;;;;;;0.20;0.20;;;10.90;99.90;;;;;;5033259;28;20087;-67
2022/11/07 06:11:41;;;;;;;0.10;0.10;;;10.90;99.90;;;;;;5047833;28;20045;-67
2022/11/07 06:14:07;;;;;;;0.30;0.30;;;10.90;99.90;;;;;;5052055;28;20046;-67
2022/11/07 06:16:33;;;;;;;0.10;0.10;;;10.90;99.90;;;;;;5045296;28;20103;-68
2022/11/07 06:18:58;;;;;;;0.30;0.30;;;11.00;99.90;;;;;;5039833;28;20481;-68
2022/11/07 06:21:24;;;;;;;0.10;0.10;;;11.00;99.90;;;;;;5050962;28;20049;-68
2022/11/07 06:23:49;;;;;;;2.10;0.82;;;11.00;99.90;;;;;;5042912;28;20053;-68
2022/11/07 06:26:15;;;;;;;0.10;0.10;;;11.00;99.90;;;;;;5036177;28;20033;-68
2022/11/07 06:28:40;;;;;;;0.15;0.15;;;11.00;99.90;;;;;;5048543;28;20080;-68
2022/11/07 06:31:06;;;;;;;0.15;0.15;;;11.10;99.90;;;;;;5032718;28;20057;-68
2022/11/07 06:33:32;;;;;;;0.10;0.10;;;11.00;99.90;;;;;;5043874;28;20061;-67
2022/11/07 06:36:11;;;;;;;0.30;0.30;;;11.10;99.90;;;;;;5036789;28;20095;-68
2022/11/07 06:38:38;;;;;;;0.13;0.13;;;11.10;99.90;;;;;;5040214;28;20074;-68
2022/11/07 06:41:09;;;;;;;0.73;0.73;;;11.10;99.90;;;;;;5039521;28;20512;-68
2022/11/07 06:43:36;;;;;;;0.73;0.73;;;11.10;99.90;;;;;;5043286;28;20045;-68
2022/11/07 06:46:04;;;;;;;0.68;0.40;;;11.10;99.90;;;;;;5043049;28;20045;-68
2022/11/07 06:48:30;;;;;;;0.20;0.20;;;11.10;99.90;;;;;;5034159;28;20084;-68
2022/11/07 06:50:59;;;;;;;0.30;0.30;;;11.10;99.90;;;;;;5051066;28;20103;-68
2022/11/07 06:53:26;;;;;;;0.10;0.10;;;11.20;99.90;;;;;;5044488;28;20045;-68
2022/11/07 06:55:52;;;;;;;0.10;0.10;;;11.20;99.90;;;;;;5044704;28;20045;-67
2022/11/07 06:58:18;;;;;;;0.10;0.10;;;11.20;99.90;;;;;;5047248;28;20045;-68
2022/11/07 07:00:44;;;;;;;1.27;0.63;;;11.20;99.90;;;;;;5042209;28;20045;-67
2022/11/07 07:03:10;;;;;;;0.47;0.47;;;11.20;99.90;;;;;;5037012;28;20048;-68
2022/11/07 07:05:36;;;;;;;0.17;0.17;;;11.20;99.90;;;;;;5031913;28;20123;-67
2022/11/07 07:08:03;;;;;;;0.17;0.17;;;11.10;99.90;;;;;;5033499;28;20112;-67
2022/11/07 07:10:29;;;;;;;0.00;0.00;;;11.10;99.90;;;;;;5041685;28;20067;-68
2022/11/07 07:12:55;;;;;;;1.65;0.95;;;11.10;99.90;;;;;;5051099;28;20037;-68
2022/11/07 07:15:21;;;;;;;0.30;0.30;;;11.10;99.90;;;;;;5038501;28;20056;-68
2022/11/07 07:17:47;;;;;;;0.10;0.10;;;11.10;99.90;;;;;;5036090;28;20489;-69
2022/11/07 07:20:13;;;;;;;0.25;0.25;;;11.20;99.90;;;;;;5042620;28;20045;-69
2022/11/07 07:22:39;;;;;;;0.47;0.47;;;11.20;99.90;;;;;;5031155;28;20497;-68
2022/11/07 07:25:05;;;;;;;0.28;0.28;;;11.20;99.90;;;;;;5047353;28;20063;-69
2022/11/07 07:27:31;;;;;;;0.57;0.40;;;11.20;99.90;;;;;;5043556;28;20053;-69
2022/11/07 07:29:56;;;;;;;0.10;0.10;;;11.20;99.90;;;;;;5041630;28;20037;-69
2022/11/07 07:32:24;;;;;;;0.10;0.10;;;11.20;99.90;;;;;;5061926;28;20052;-69
2022/11/07 07:34:50;;;;;;;0.43;0.43;;;11.30;99.90;;;;;;5054010;28;20132;-69
2022/11/07 07:37:16;;;;;;;0.38;0.38;;;11.20;99.90;;;;;;5050002;28;20052;-69
2022/11/07 07:39:42;;;;;;;0.10;0.10;;;11.30;99.90;;;;;;5056112;28;20139;-68
2022/11/07 07:42:08;;;;;;;0.10;0.10;;;11.30;99.90;;;;;;5050705;28;20140;-68
2022/11/07 07:44:34;;;;;;;0.00;0.00;;;11.30;99.90;;;;;;5062725;28;20045;-68
2022/11/07 07:47:01;;;;;;;0.10;0.10;;;11.30;99.90;;;;;;5064287;28;20052;-68
2022/11/07 07:49:26;;;;;;;0.10;0.10;;;11.30;99.90;;;;;;5056088;28;20051;-68
2022/11/07 07:51:52;;;;;;;0.10;0.10;;;11.30;99.90;;;;;;5065649;28;20048;-68
2022/11/07 07:54:17;;;;;;;5.38;0.57;;;11.30;99.90;;;;;;5058962;28;20036;-68
2022/11/07 07:56:43;;;;;;;0.17;0.17;;;11.30;99.90;;;;;;5043173;28;20040;-67
2022/11/07 07:59:08;;;;;;;0.10;0.10;;;11.30;99.90;;;;;;5060925;28;20044;-68
2022/11/07 08:01:34;;;;;;;0.50;0.30;;;11.30;99.90;;;;;;5057260;28;20044;-68
2022/11/07 08:03:59;;;;;;;0.25;0.25;;;11.40;99.90;;;;;;5060582;28;20045;-69
2022/11/07 08:06:25;;;;;;;0.10;0.10;;;11.30;99.90;;;;;;5044981;28;20043;-68
2022/11/07 08:08:50;;;;;;;0.57;0.55;;;11.30;99.90;;;;;;5058851;28;20043;-68
2022/11/07 08:11:16;;;;;;;2.42;1.00;;;11.30;99.90;;;;;;5059462;28;20300;-70
2022/11/07 08:13:42;;;;;;;1.23;1.13;;;11.30;99.90;;;;;;5056747;28;20048;-68
2022/11/07 08:16:08;;;;;;;1.55;1.00;;;11.40;99.90;;;;;;5070216;28;20103;-68
2022/11/07 08:18:35;;;;;;;0.55;0.47;;;11.40;99.90;;;;;;5051333;28;20300;-68
2022/11/07 08:21:01;;;;;;;0.22;0.22;;;11.40;99.90;;;;;;5052742;28;20488;-69
2022/11/07 08:23:27;;;;;;;0.10;0.10;;;11.40;99.90;;;;;;5042050;28;20071;-69
2022/11/07 08:25:55;;;;;;;0.10;0.10;;;11.40;99.90;;;;;;5061660;28;20495;-68
2022/11/07 08:28:24;;;;;;;1.20;1.17;;;11.40;99.90;;;;;;5067631;28;20073;-68
2022/11/07 08:30:57;;;;;;;0.30;0.30;;;11.50;99.90;;;;;;5050482;28;20498;-67
2022/11/07 08:33:23;;;;;;;0.00;0.00;;;11.50;99.90;;;;;;5056412;28;20049;-68
2022/11/07 08:35:49;;;;;;;0.30;0.30;;;11.50;99.90;;;;;;5044993;28;20128;-68
2022/11/07 08:38:15;;;;;;;0.20;0.20;;;11.50;99.90;;;;;;5041599;28;20120;-69
2022/11/07 08:40:40;;;;;;;0.10;0.10;;;11.50;99.90;;;;;;5038887;28;20047;-68
2022/11/07 08:43:06;;;;;;;0.10;0.10;;;11.50;99.90;;;;;;5056810;28;20114;-68
2022/11/07 08:45:32;;;;;;;0.10;0.10;;;11.50;99.90;;;;;;5054997;28;20090;-68
2022/11/07 08:47:58;;;;;;;0.05;0.05;;;11.50;99.90;;;;;;5064099;28;20093;-69
2022/11/07 08:50:25;;;;;;;0.20;0.20;;;11.50;99.90;;;;;;5058619;28;20048;-68
2022/11/07 08:52:51;;;;;;;0.10;0.10;;;11.50;99.90;;;;;;5041938;28;20418;-68
2022/11/07 08:55:17;;;;;;;0.20;0.20;;;11.50;99.90;;;;;;5055498;28;20161;-69
2022/11/07 08:57:42;;;;;;;1.38;1.38;;;11.60;99.90;;;;;;5062639;28;20048;-68
2022/11/07 09:00:08;;;;;;;0.17;0.17;;;11.60;99.90;;;;;;5065722;28;20036;-68
2022/11/07 09:02:34;;;;;;;0.45;0.45;;;11.60;99.90;;;;;;5053085;28;20812;-68
2022/11/07 09:04:59;;;;;;;1.13;0.95;;;11.60;99.90;;;;;;5055108;28;20043;-68
2022/11/07 09:07:25;;;;;;;0.22;0.22;;;11.60;99.90;;;;;;5051213;28;20083;-68
2022/11/07 09:09:51;;;;;;;0.10;0.10;;;11.60;99.90;;;;;;5065412;28;20051;-68
2022/11/07 09:12:16;;;;;;;0.13;0.13;;;11.60;99.90;;;;;;5069644;28;20387;-68
2022/11/07 09:14:42;;;;;;;0.38;0.38;;;11.70;99.90;;;;;;5056718;28;20107;-68
2022/11/07 09:17:08;;;;;;;0.90;0.90;;;11.70;99.90;;;;;;5062213;28;20045;-66
2022/11/07 09:19:33;;;;;;;0.32;0.32;;;11.80;99.90;;;;;;5060730;28;20054;-67
2022/11/07 09:21:59;;;;;;;0.08;0.08;;;11.80;99.90;;;;;;5065013;28;20130;-69
2022/11/07 09:24:25;;;;;;;0.30;0.30;;;11.70;99.90;;;;;;5036960;28;20420;-68
2022/11/07 09:26:50;;;;;;;2.45;0.90;;;11.80;99.90;;;;;;5059498;28;20037;-68
2022/11/07 09:29:16;;;;;;;0.25;0.25;;;11.80;99.90;;;;;;5039124;28;20099;-69
2022/11/07 09:31:42;;;;;;;2.00;0.52;;;11.80;99.90;;;;;;5042088;28;20049;-68
2022/11/07 09:34:07;;;;;;;0.10;0.10;;;11.80;99.90;;;;;;5031625;28;20053;-69
2022/11/07 09:36:33;;;;;;;0.47;0.47;;;11.80;99.90;;;;;;5044334;28;20051;-69
2022/11/07 09:38:59;;;;;;;0.30;0.30;;;11.80;99.90;;;;;;5061569;28;20553;-68
2022/11/07 09:41:50;;;;;;;0.10;0.10;;;11.90;99.90;;;;;;5042685;28;20091;-68
2022/11/07 09:44:45;;;;;;;0.17;0.17;;;11.90;99.90;;;;;;5049960;28;20056;-68
2022/11/07 09:47:13;;;;;;;4.90;0.82;;;11.90;99.90;;;;;;5035985;28;20053;-68
2022/11/07 09:49:50;;;;;;;0.00;0.00;;;11.90;99.90;;;;;;5067119;28;20127;-68
2022/11/07 09:52:37;;;;;;;0.20;0.20;;;11.90;99.90;;;;;;5055470;28;20055;-68
2022/11/07 09:55:11;;;;;;;0.10;0.10;;;12.00;99.90;;;;;;5068827;28;20044;-68
2022/11/07 09:57:37;;;;;;;0.20;0.20;;;12.00;99.90;;;;;;5054507;28;20075;-68
2022/11/07 10:00:17;;;;;;;0.47;0.47;;;12.00;99.90;;;;;;5049634;28;20032;-68
2022/11/07 10:02:46;;;;;;;0.10;0.10;;;12.00;99.90;;;;;;5053531;28;20045;-68
2022/11/07 10:05:15;;;;;;;0.75;0.65;;;12.00;99.90;;;;;;5061852;28;20033;-68
2022/11/07 10:08:02;;;;;;;0.20;0.20;;;12.10;99.90;;;;;;5069698;28;20055;-68
2022/11/07 10:10:54;;;;;;;0.22;0.22;;;12.10;99.90;;;;;;5064594;28;20052;-67
2022/11/07 10:13:56;;;;;;;0.10;0.10;;;12.10;99.90;;;;;;5056698;28;20701;-67
2022/11/07 10:16:24;;;;;;;0.10;0.10;;;12.20;99.90;;;;;;5042175;28;20048;-67
2022/11/07 10:19:18;;;;;;;0.10;0.10;;;12.20;99.90;;;;;;5064026;28;20102;-67
2022/11/07 10:22:08;;;;;;;1.23;1.13;;;12.30;99.90;;;;;;5072914;28;20068;-67
2022/11/07 10:24:56;;;;;;;0.10;0.10;;;12.30;99.90;;;;;;5061303;28;20131;-67
2022/11/07 10:27:22;;;;;;;0.10;0.10;;;12.40;99.90;;;;;;5052185;28;20040;-67
2022/11/07 10:29:52;;;;;;;24.90;1.50;;;12.40;99.90;;;;;;5056357;28;20403;-67
2022/11/07 10:32:40;;;;;;;0.10;0.10;;;12.40;99.90;;;;;;5063868;28;20098;-67
2022/11/07 10:35:23;;;;;;;0.13;0.13;;;12.50;99.90;;;;;;5052387;28;20056;-67
2022/11/07 10:37:53;;;;;;;1.88;1.75;;;12.50;99.90;;;;;;5056013;28;20037;-67
2022/11/07 10:40:20;;;;;;;0.38;0.38;;;12.60;99.90;;;;;;5036737;28;20067;-67
2022/11/07 10:42:47;;;;;;;0.25;0.25;;;12.50;99.90;;;;;;5059422;28;20049;-66
2022/11/07 10:45:15;;;;;;;0.10;0.10;;;12.50;99.90;;;;;;5070050;28;20033;-68
2022/11/07 10:47:42;;;;;;;0.10;0.10;;;12.60;99.90;;;;;;5052059;28;20047;-68
2022/11/07 10:50:19;;;;;;;0.38;0.38;;;12.60;99.90;;;;;;5058733;28;20037;-68
2022/11/07 10:53:00;;;;;;;0.40;0.40;;;12.60;99.90;;;;;;5053751;28;20178;-68
2022/11/07 10:55:27;;;;;;;0.28;0.28;;;12.60;99.90;;;;;;5066743;28;20093;-68
2022/11/07 10:57:58;;;;;;;0.10;0.10;;;12.70;99.90;;;;;;5058952;28;20032;-68
2022/11/07 11:00:30;;;;;;;0.20;0.20;;;12.80;99.90;;;;;;5042055;28;20448;-67
2022/11/07 11:02:57;;;;;;;1.27;1.02;;;12.80;99.90;;;;;;5055108;28;20724;-67
2022/11/07 11:05:39;;;;;;;0.20;0.20;;;12.80;99.90;;;;;;5041314;28;20484;-67
2022/11/07 11:08:18;;;;;;;0.10;0.10;;;12.80;99.90;;;;;;5062983;28;20045;-69
2022/11/07 11:10:44;;;;;;;0.10;0.10;;;12.70;99.90;;;;;;5060751;28;20447;-67
2022/11/07 11:13:31;;;;;;;0.55;0.55;;;12.70;99.90;;;;;;5070186;28;20048;-67
2022/11/07 11:15:58;;;;;;;0.10;0.10;;;12.70;99.90;;;;;;5069238;28;20044;-68
2022/11/07 11:18:24;;;;;;;0.08;0.08;;;12.70;99.90;;;;;;5059159;28;20097;-67
2022/11/07 11:21:00;;;;;;;0.30;0.30;;;12.80;99.90;;;;;;5043779;28;20097;-68
2022/11/07 11:23:29;;;;;;;0.10;0.10;;;12.80;99.90;;;;;;5042629;28;20130;-67
2022/11/07 11:26:06;;;;;;;1.75;0.65;;;12.80;99.90;;;;;;5050878;28;20029;-67
2022/11/07 11:28:39;;;;;;;0.10;0.10;;;12.80;99.90;;;;;;5059770;28;20068;-68
2022/11/07 11:31:13;;;;;;;5.68;3.30;;;12.80;99.90;;;;;;5042719;28;20605;-68
2022/11/07 11:33:47;;;;;;;5.85;1.95;;;12.80;99.90;;;;;;5059151;28;20036;-68
2022/11/07 11:36:18;;;;;;;1.02;1.02;;;12.80;99.90;;;;;;5071051;28;20047;-67
2022/11/07 11:38:53;;;;;;;0.10;0.10;;;12.80;99.90;;;;;;5064240;28;20037;-67
2022/11/07 11:41:34;;;;;;;3.33;0.90;;;12.90;99.90;;;;;;5063076;28;20033;-67
2022/11/07 11:44:51;;;;;;;0.30;0.28;;;13.00;99.90;;;;;;5059705;28;20044;-67
2022/11/07 11:47:35;;;;;;;0.10;0.10;;;13.10;99.90;;;;;;5016765;28;20134;-68
2022/11/07 11:50:08;;;;;;;;;;;13.20;99.90;;;;;;5039767;28;20490;-67
2022/11/07 11:52:34;;;;;;;0.10;0.10;;;13.20;99.90;;;;;;5034956;28;20275;-67
2022/11/07 11:55:01;;;;;;;0.10;0.10;;;13.30;99.90;;;;;;5049264;28;20053;-67
2022/11/07 11:57:42;;;;;;;0.05;0.05;;;13.30;99.90;;;;;;5058489;28;20115;-67
2022/11/07 12:00:16;;;;;;;0.10;0.10;;;13.40;99.90;;;;;;5059242;28;20473;-67
2022/11/07 12:02:59;;;;;;;6.50;2.13;;;13.40;99.90;;;;;;5040632;28;20063;-67
2022/11/07 12:06:01;;;;;;;0.20;0.20;;;13.50;99.90;;;;;;5050718;28;20506;-67
2022/11/07 12:08:48;;;;;;;0.05;0.05;;;13.60;99.90;;;;;;5067539;28;20099;-67
2022/11/07 12:11:36;;;;;;;0.10;0.10;;;13.70;99.90;;;;;;5055870;28;20068;-67
2022/11/07 12:14:20;;;;;;;0.10;0.10;;;13.80;99.90;;;;;;5048758;28;20045;-67
2022/11/07 12:16:51;;;;;;;;;;;13.80;99.90;;;;;;5060839;28;20098;-66
2022/11/07 12:19:19;;;;;;;0.00;0.00;;;13.70;99.90;;;;;;5035896;28;19928;-67
2022/11/07 12:21:52;;;;;;;0.90;0.90;;;13.70;99.90;;;;;;5043831;28;20462;-66
2022/11/07 12:24:52;;;;;;;0.10;0.10;;;13.60;99.90;;;;;;5061876;28;20044;-68
2022/11/07 12:27:42;;;;;;;0.10;0.10;;;13.60;99.90;;;;;;5069258;28;20063;-68
2022/11/07 12:30:21;;;;;;;0.10;0.10;;;13.60;99.90;;;;;;5056782;28;20045;-68
2022/11/07 12:33:07;;;;;;;0.00;0.00;;;13.70;99.90;;;;;;5060421;28;20488;-67
2022/11/07 12:35:53;;;;;;;2.78;0.88;;;13.70;99.90;;;;;;5065266;28;20167;-67
2022/11/07 12:38:43;;;;;;;0.75;0.75;;;13.70;99.90;;;;;;5049468;28;20041;-67
2022/11/07 12:41:22;;;;;;;0.10;0.10;;;13.70;99.90;;;;;;5063935;28;20048;-67
2022/11/07 12:44:07;;;;;;;0.57;0.57;;;13.70;99.90;;;;;;5066801;28;20041;-67
2022/11/07 12:46:55;;;;;;;0.10;0.10;;;13.60;99.90;;;;;;5061323;28;20036;-66
2022/11/07 12:49:31;;;;;;;0.10;0.10;;;13.60;99.90;;;;;;5065219;28;20033;-66
2022/11/07 12:52:28;;;;;;;3.80;2.95;;;13.60;99.90;;;;;;5060891;28;20304;-67
2022/11/07 12:55:04;;;;;;;0.60;0.60;;;13.60;99.90;;;;;;5065083;28;20182;-66
2022/11/07 12:57:33;;;;;;;0.10;0.10;;;13.50;99.90;;;;;;5043988;28;20457;-67
2022/11/07 13:00:23;;;;;;;0.03;0.03;;;13.50;99.90;;;;;;5058675;28;20093;-67
2022/11/07 13:03:04;;;;;;;0.45;0.45;;;13.50;99.90;;;;;;5055889;28;20063;-68
2022/11/07 13:05:36;;;;;;;1.20;0.85;;;13.40;99.90;;;;;;5061946;28;20048;-68
2022/11/07 13:08:09;;;;;;;0.55;0.55;;;13.40;99.90;;;;;;5056964;28;20078;-67
2022/11/07 13:10:52;;;;;;;2.63;1.05;;;13.40;99.90;;;;;;5064336;28;20055;-67
2022/11/07 13:13:45;;;;;;;0.10;0.10;;;13.40;99.90;;;;;;5052778;28;20094;-68
2022/11/07 13:16:28;;;;;;;;;;;13.40;99.90;;;;;;5054002;28;20076;-68